Time;durP1;ratioP1;P1;durP2;ratioP2;P2;SDS_P1;SDS_P2;PMS_P1;PMS_P2;Temp;Humidity;BMP_temperature;BMP_pressure;BME280_temperature;BME280_humidity;BME280_pressure;Samples;Min_cycle;Max_cycle;Signal;HPM_P1;HPM_P2
2022/03/22 00:00:44;;;;;;;;;32.25;28.25;26.20;99.90;;;;;;5025708;28;8748;-84
2022/03/22 00:03:11;;;;;;;;;31.00;27.75;26.20;99.90;;;;;;5042132;28;8733;-84
2022/03/22 00:05:42;;;;;;;;;29.75;27.75;26.20;99.90;;;;;;5042176;28;8777;-84
2022/03/22 00:08:09;;;;;;;;;32.50;29.50;26.20;99.90;;;;;;5043293;28;8868;-77
2022/03/22 00:10:37;;;;;;;;;30.50;29.75;26.20;99.90;;;;;;5041661;28;8767;-85
2022/03/22 00:13:05;;;;;;;;;35.25;32.00;26.20;99.90;;;;;;5026388;28;8729;-85
2022/03/22 00:15:33;;;;;;;;;33.75;29.50;26.20;99.90;;;;;;5042262;28;8861;-84
2022/03/22 00:18:00;;;;;;;;;35.00;30.25;26.20;99.90;;;;;;5042076;28;8736;-84
2022/03/22 00:20:27;;;;;;;;;29.00;27.75;26.20;99.90;;;;;;5025266;28;8758;-84
2022/03/22 00:22:54;;;;;;;;;35.00;31.25;26.20;99.90;;;;;;5041821;28;8803;-84
2022/03/22 00:25:21;;;;;;;;;34.75;32.25;26.20;99.90;;;;;;5025829;28;9390;-84
2022/03/22 00:27:55;;;;;;;;;28.75;26.50;26.30;99.90;;;;;;5025317;28;8748;-85
2022/03/22 00:30:29;;;;;;;;;39.50;32.75;26.30;99.90;;;;;;5026949;28;8756;-84
2022/03/22 00:32:57;;;;;;;;;33.75;30.50;26.30;99.90;;;;;;5041858;28;8760;-84
2022/03/22 00:35:24;;;;;;;;;32.00;29.00;26.30;99.90;;;;;;5041859;28;8826;-84
2022/03/22 00:37:53;;;;;;;;;35.50;32.25;26.30;99.90;;;;;;5041915;28;8832;-84
2022/03/22 00:40:21;;;;;;;;;34.25;32.00;26.30;99.90;;;;;;5058219;28;9382;-83
2022/03/22 00:42:48;;;;;;;;;34.50;31.00;26.40;99.90;;;;;;5054581;28;8754;-84
2022/03/22 00:45:16;;;;;;;;;36.25;32.50;26.40;99.90;;;;;;5021811;28;8721;-89
2022/03/22 00:47:44;;;;;;;;;35.50;31.00;26.40;99.90;;;;;;5038003;28;8826;-84
2022/03/22 00:50:11;;;;;;;;;39.00;32.50;26.40;99.90;;;;;;5037951;28;8726;-84
2022/03/22 00:52:37;;;;;;;;;39.25;33.75;26.40;99.90;;;;;;5021462;28;8761;-84
2022/03/22 00:55:05;;;;;;;;;40.25;33.00;26.40;99.90;;;;;;5054898;28;8710;-84
2022/03/22 00:57:34;;;;;;;;;38.50;31.75;26.50;99.90;;;;;;5020770;28;8750;-84
2022/03/22 01:00:01;;;;;;;;;40.00;33.25;26.60;99.90;;;;;;5037750;28;8797;-88
2022/03/22 01:02:28;;;;;;;;;39.25;34.25;26.70;99.90;;;;;;5017725;28;8769;-84
2022/03/22 01:04:58;;;;;;;;;36.00;31.50;26.80;99.90;;;;;;5034132;28;8803;-84
2022/03/22 01:07:25;;;;;;;;;30.25;29.50;26.80;99.90;;;;;;5034053;28;8761;-83
2022/03/22 01:09:51;;;;;;;;;36.75;30.25;26.90;99.90;;;;;;5034825;28;8851;-84
2022/03/22 01:12:18;;;;;;;;;32.75;31.75;26.90;99.90;;;;;;5034021;28;8769;-84
2022/03/22 01:14:44;;;;;;;;;35.25;29.75;27.00;99.90;;;;;;5034169;28;8753;-83
2022/03/22 01:17:11;;;;;;;;;39.50;32.75;27.10;99.90;;;;;;5025950;28;8774;-84
2022/03/22 01:19:39;;;;;;;;;35.25;31.25;27.20;99.90;;;;;;5020681;28;8794;-83
2022/03/22 01:22:08;;;;;;;;;35.50;32.75;27.20;99.90;;;;;;5038241;28;8780;-84
2022/03/22 01:24:35;;;;;;;;;40.25;31.00;27.30;99.90;;;;;;5037580;28;8769;-84
2022/03/22 01:27:01;;;;;;;;;34.25;30.00;27.40;99.90;;;;;;5037402;28;8785;-89
2022/03/22 01:29:28;;;;;;;;;35.25;28.25;27.40;99.90;;;;;;5053501;28;8766;-83
2022/03/22 01:31:55;;;;;;;;;37.75;32.50;27.50;99.90;;;;;;5053670;28;9137;-84
2022/03/22 01:34:22;;;;;;;;;32.50;30.00;27.60;99.90;;;;;;5037465;28;8820;-84
2022/03/22 01:36:49;;;;;;;;;30.00;26.75;27.70;99.90;;;;;;5037289;28;8750;-84
2022/03/22 01:39:15;;;;;;;;;28.25;25.25;27.80;99.90;;;;;;5036802;28;8793;-84
2022/03/22 01:41:42;;;;;;;;;36.00;29.50;27.90;99.90;;;;;;5020211;28;8839;-84
2022/03/22 01:44:08;;;;;;;;;23.25;22.50;28.00;99.90;;;;;;5053398;28;9426;-84
2022/03/22 01:46:38;;;;;;;;;29.00;27.75;28.10;99.90;;;;;;5036577;28;8912;-84
2022/03/22 01:49:05;;;;;;;;;28.25;27.25;28.10;99.90;;;;;;5020953;28;8738;-84
2022/03/22 01:51:32;;;;;;;;;33.75;30.75;28.10;99.90;;;;;;5035818;28;8742;-83
2022/03/22 01:53:59;;;;;;;;;34.50;30.25;28.10;99.90;;;;;;5036584;28;8750;-89
2022/03/22 01:56:26;;;;;;;;;28.75;26.50;28.20;99.90;;;;;;5052633;28;8884;-84
2022/03/22 01:58:55;;;;;;;;;34.00;27.75;28.30;99.90;;;;;;5036640;28;8770;-84
2022/03/22 02:06:54;;;;;;;;;28.75;26.50;28.70;99.90;;;;;;5053713;28;8765;-84
2022/03/22 02:09:20;;;;;;;;;22.00;20.25;28.80;99.90;;;;;;5020222;28;8770;-84
2022/03/22 02:11:47;;;;;;;;;30.75;27.00;28.80;99.90;;;;;;5020075;28;8858;-87
2022/03/22 02:14:13;;;;;;;;;26.75;24.50;28.90;99.90;;;;;;5020110;28;8826;-81
2022/03/22 02:16:40;;;;;;;;;25.00;22.00;29.00;99.90;;;;;;5036205;28;8762;-81
2022/03/22 02:19:09;;;;;;;;;21.75;18.25;29.00;99.90;;;;;;5036775;28;8738;-81
2022/03/22 02:21:37;;;;;;;;;29.25;21.75;29.00;99.90;;;;;;5036210;28;8757;-81
2022/03/22 02:24:04;;;;;;;;;26.50;20.75;29.10;99.90;;;;;;5020148;28;9427;-81
2022/03/22 02:26:30;;;;;;;;;20.50;18.50;29.20;99.90;;;;;;5019529;28;8776;-80
2022/03/22 02:28:57;;;;;;;;;24.25;23.75;29.10;99.90;;;;;;5019885;28;8738;-80
2022/03/22 02:31:25;;;;;;;;;20.00;15.75;29.00;99.90;;;;;;5037827;28;8862;-81
2022/03/22 02:33:51;;;;;;;;;27.00;23.75;29.10;99.90;;;;;;5052933;28;8754;-82
2022/03/22 02:36:18;;;;;;;;;24.75;23.00;29.00;99.90;;;;;;5019665;28;8876;-82
2022/03/22 02:38:45;;;;;;;;;47.75;29.75;29.00;99.90;;;;;;5019668;28;9513;-86
2022/03/22 02:41:19;;;;;;;;;22.50;20.50;28.90;99.90;;;;;;5039108;28;8785;-81
2022/03/22 02:43:46;;;;;;;;;35.25;25.75;29.00;99.90;;;;;;5039380;28;8914;-76
2022/03/22 02:46:13;;;;;;;;;25.25;24.75;29.00;99.90;;;;;;5023502;28;8725;-79
2022/03/22 02:48:39;;;;;;;;;22.25;22.25;28.60;99.90;;;;;;5023059;28;8830;-80
2022/03/22 02:51:07;;;;;;;;;25.75;23.75;28.30;99.90;;;;;;5073532;28;8721;-80
2022/03/22 02:53:34;;;;;;;;;19.25;19.25;28.20;99.90;;;;;;5039228;28;8759;-80
2022/03/22 02:56:01;;;;;;;;;24.00;23.75;28.10;99.90;;;;;;5023063;28;8772;-81
2022/03/22 02:58:28;;;;;;;;;25.25;25.25;28.00;99.90;;;;;;5039231;28;8721;-80
2022/03/22 03:00:55;;;;;;;;;21.50;21.50;28.10;99.90;;;;;;5023713;28;8752;-82
2022/03/22 03:03:24;;;;;;;;;22.75;22.00;28.20;99.90;;;;;;5022262;28;8743;-81
2022/03/22 03:05:51;;;;;;;;;20.00;19.25;28.20;99.90;;;;;;5040412;28;8789;-82
2022/03/22 03:08:18;;;;;;;;;21.25;19.50;28.30;99.90;;;;;;5023515;28;8792;-81
2022/03/22 03:10:45;;;;;;;;;20.75;20.50;28.30;99.90;;;;;;5023437;28;10054;-82
2022/03/22 03:13:11;;;;;;;;;20.00;20.00;28.30;99.90;;;;;;5040597;28;8727;-78
2022/03/22 03:15:38;;;;;;;;;20.75;20.75;28.40;99.90;;;;;;5039450;28;8755;-82
2022/03/22 03:18:05;;;;;;;;;19.75;19.75;28.40;99.90;;;;;;5023149;28;8824;-82
2022/03/22 03:20:31;;;;;;;;;18.00;18.00;28.50;99.90;;;;;;5023097;28;8863;-88
2022/03/22 03:22:58;;;;;;;;;20.50;20.50;28.50;99.90;;;;;;5039981;28;8743;-82
2022/03/22 03:25:25;;;;;;;;;20.50;19.00;28.50;99.90;;;;;;5039484;28;8904;-80
2022/03/22 03:27:52;;;;;;;;;12.75;12.75;28.70;99.90;;;;;;5040113;28;8838;-82
2022/03/22 03:30:19;;;;;;;;;19.75;19.75;28.70;99.90;;;;;;5039383;28;8816;-82
2022/03/22 03:32:45;;;;;;;;;18.00;18.00;28.80;99.90;;;;;;5052115;28;8725;-83
2022/03/22 03:35:12;;;;;;;;;13.50;13.50;28.70;99.90;;;;;;5043383;28;8764;-80
2022/03/22 03:37:42;;;;;;;;;15.60;15.60;28.70;99.90;;;;;;5028042;28;8811;-81
2022/03/22 03:40:09;;;;;;;;;14.00;14.00;28.80;99.90;;;;;;5030015;28;8792;-81
2022/03/22 03:42:45;;;;;;;;;14.25;14.25;28.90;99.90;;;;;;5043532;28;8902;-81
2022/03/22 03:47:58;;;;;;;;;16.50;14.50;29.00;99.90;;;;;;5048530;28;8753;-81
2022/03/22 03:50:26;;;;;;;;;16.75;15.25;29.10;99.90;;;;;;5044371;28;8721;-86
2022/03/22 03:52:52;;;;;;;;;14.50;14.50;29.10;99.90;;;;;;5044998;28;9497;-81
2022/03/22 03:55:19;;;;;;;;;12.00;11.25;29.00;99.90;;;;;;5061750;28;8713;-82
2022/03/22 03:57:46;;;;;;;;;18.40;16.80;29.00;99.90;;;;;;5044331;28;8708;-81
2022/03/22 04:00:13;;;;;;;;;15.50;15.00;29.00;99.90;;;;;;5044101;28;8796;-81
2022/03/22 04:02:43;;;;;;;;;12.40;12.40;29.00;99.90;;;;;;5044799;28;8825;-80
2022/03/22 04:05:10;;;;;;;;;12.60;12.60;29.00;99.90;;;;;;5045668;28;8761;-81
2022/03/22 04:07:36;;;;;;;;;15.75;13.25;28.90;99.90;;;;;;5060694;28;8895;-81
2022/03/22 04:10:03;;;;;;;;;15.75;15.75;28.80;99.90;;;;;;5028719;28;8769;-81
2022/03/22 04:12:31;;;;;;;;;16.50;16.00;28.80;99.90;;;;;;5027724;28;8753;-80
2022/03/22 04:14:57;;;;;;;;;13.25;13.25;28.90;99.90;;;;;;5043165;28;8772;-80
2022/03/22 04:17:24;;;;;;;;;8.25;8.25;29.10;99.90;;;;;;5061241;28;8792;-86
2022/03/22 04:19:51;;;;;;;;;12.75;12.75;29.30;99.90;;;;;;5061038;28;8773;-80
2022/03/22 04:22:18;;;;;;;;;15.00;12.00;29.60;99.90;;;;;;5044768;28;8764;-80
2022/03/22 04:24:45;;;;;;;;;14.75;12.75;29.60;99.90;;;;;;5027503;28;8772;-81
2022/03/22 04:32:44;;;;;;;;;9.75;9.75;29.70;99.90;;;;;;5049590;28;8772;-80
2022/03/22 04:35:24;;;;;;;;;11.20;11.20;29.70;99.90;;;;;;5044114;28;8781;-80
2022/03/22 04:37:55;;;;;;;;;13.20;9.60;29.70;99.90;;;;;;5044329;28;8901;-79
2022/03/22 04:40:22;;;;;;;;;9.75;9.75;29.70;99.90;;;;;;5045268;28;8789;-80
2022/03/22 04:42:50;;;;;;;;;12.50;12.50;29.70;99.90;;;;;;5043743;28;8785;-80
2022/03/22 04:45:16;;;;;;;;;12.75;11.75;29.80;99.90;;;;;;5043896;28;8773;-81
2022/03/22 04:47:46;;;;;;;;;10.00;10.00;29.60;99.90;;;;;;5026699;28;8749;-81
2022/03/22 04:50:14;;;;;;;;;4.50;3.25;29.70;99.90;;;;;;5044077;28;8776;-85
2022/03/22 04:58:10;;;;;;;;;10.40;10.40;29.50;99.90;;;;;;5062594;28;8733;-80
2022/03/22 05:00:36;;;;;;;;;10.25;9.50;29.50;99.90;;;;;;5042956;28;8854;-80
2022/03/22 05:03:03;;;;;;;;;11.25;11.25;29.40;99.90;;;;;;5026421;28;8779;-81
2022/03/22 05:08:15;;;;;;;;;7.20;7.20;29.40;99.90;;;;;;5048079;28;8870;-83
2022/03/22 05:10:42;;;;;;;;;9.75;9.75;29.40;99.90;;;;;;5026157;28;8725;-81
2022/03/22 05:13:08;;;;;;;;;12.50;12.50;29.30;99.90;;;;;;5043430;28;8759;-80
2022/03/22 05:15:35;;;;;;;;;12.00;12.00;29.30;99.90;;;;;;5025476;28;8773;-81
2022/03/22 05:18:02;;;;;;;;;12.75;12.75;29.20;99.90;;;;;;5058929;28;8773;-81
2022/03/22 05:20:28;;;;;;;;;14.00;14.00;29.20;99.90;;;;;;5025572;28;8861;-80
2022/03/22 05:22:56;;;;;;;;;13.40;12.00;29.20;99.90;;;;;;5042408;28;8763;-80
2022/03/22 05:25:23;;;;;;;;;13.25;13.25;29.20;99.90;;;;;;5059218;28;8740;-80
2022/03/22 05:27:50;;;;;;;;;13.50;13.25;29.20;99.90;;;;;;5042663;28;8749;-80
2022/03/22 05:30:16;;;;;;;;;15.50;14.25;29.20;99.90;;;;;;5026136;28;9471;-81
2022/03/22 05:32:43;;;;;;;;;11.25;11.25;29.20;99.90;;;;;;5058866;28;8776;-80
2022/03/22 05:35:10;;;;;;;;;10.50;10.50;29.10;99.90;;;;;;5042031;28;8822;-86
2022/03/22 05:37:36;;;;;;;;;13.00;12.25;29.10;99.90;;;;;;5041582;28;8845;-81
2022/03/22 05:40:04;;;;;;;;;16.00;15.25;29.20;99.90;;;;;;5043173;28;8800;-81
2022/03/22 05:42:31;;;;;;;;;12.00;12.00;29.20;99.90;;;;;;5058313;28;8757;-81
2022/03/22 05:44:58;;;;;;;;;8.75;8.75;29.10;99.90;;;;;;5041985;28;8807;-81
2022/03/22 05:47:25;;;;;;;;;10.75;10.75;29.00;99.90;;;;;;5042148;28;8757;-80
2022/03/22 05:49:51;;;;;;;;;12.50;9.50;29.10;99.90;;;;;;5042409;28;8891;-80
2022/03/22 05:52:18;;;;;;;;;14.50;14.25;29.00;99.90;;;;;;5026440;28;8754;-80
2022/03/22 05:54:44;;;;;;;;;13.50;10.50;29.00;99.90;;;;;;5027419;28;8752;-81
2022/03/22 05:57:11;;;;;;;;;11.50;11.50;29.00;99.90;;;;;;5059957;28;8818;-81
2022/03/22 05:59:37;;;;;;;;;13.00;11.25;29.00;99.90;;;;;;5044010;28;8825;-80
2022/03/22 06:02:04;;;;;;;;;13.00;9.25;29.00;99.90;;;;;;5042768;28;8768;-86
2022/03/22 06:04:31;;;;;;;;;13.25;13.25;29.00;99.90;;;;;;5043106;28;8776;-80
2022/03/22 06:07:00;;;;;;;;;15.00;13.25;28.90;99.90;;;;;;5044382;28;8777;-80
2022/03/22 06:09:27;;;;;;;;;13.50;13.50;28.90;99.90;;;;;;5043750;28;8859;-79
2022/03/22 06:11:54;;;;;;;;;15.25;15.25;28.90;99.90;;;;;;5043423;28;8733;-79
2022/03/22 06:14:20;;;;;;;;;16.00;16.00;28.90;99.90;;;;;;5026556;28;8809;-80
2022/03/22 06:16:47;;;;;;;;;18.25;18.00;28.80;99.90;;;;;;5042870;28;8756;-80
2022/03/22 06:19:13;;;;;;;;;16.75;15.00;28.70;99.90;;;;;;5041682;28;9421;-79
2022/03/22 06:21:40;;;;;;;;;11.50;9.25;28.70;99.90;;;;;;5057375;28;8768;-82
2022/03/22 06:24:07;;;;;;;;;19.25;17.25;28.70;99.90;;;;;;5041169;28;8725;-79
2022/03/22 06:26:33;;;;;;;;;20.25;18.00;28.50;99.90;;;;;;5041005;28;8736;-80
2022/03/22 06:29:00;;;;;;;;;20.00;18.50;28.60;99.90;;;;;;5024286;28;8720;-85
2022/03/22 06:31:27;;;;;;;;;16.25;14.50;28.60;99.90;;;;;;5041612;28;8709;-80
2022/03/22 06:33:54;;;;;;;;;17.50;17.00;28.60;99.90;;;;;;5041932;28;8701;-80
2022/03/22 06:36:20;;;;;;;;;16.50;16.50;28.50;99.90;;;;;;5057856;28;8709;-80
2022/03/22 06:38:47;;;;;;;;;19.25;19.25;28.50;99.90;;;;;;5024385;28;8803;-80
2022/03/22 06:41:14;;;;;;;;;17.25;16.50;28.70;99.90;;;;;;5041410;28;8800;-80
2022/03/22 06:43:40;;;;;;;;;15.25;14.75;28.70;99.90;;;;;;5025180;28;8795;-80
2022/03/22 06:46:07;;;;;;;;;16.60;16.00;28.70;99.90;;;;;;5025097;28;8768;-81
2022/03/22 06:48:33;;;;;;;;;15.50;13.50;28.90;99.90;;;;;;5041226;28;8867;-80
2022/03/22 06:51:00;;;;;;;;;17.25;16.75;28.80;99.90;;;;;;5041758;28;8753;-80
2022/03/22 06:53:27;;;;;;;;;13.75;13.75;29.00;99.90;;;;;;5041187;28;8788;-80
2022/03/22 06:55:53;;;;;;;;;14.00;14.00;29.20;99.90;;;;;;5041342;28;8753;-86
2022/03/22 06:58:22;;;;;;;;;15.25;14.25;29.00;99.90;;;;;;5041972;28;8768;-80
2022/03/22 07:00:49;;;;;;;;;18.20;15.20;29.10;99.90;;;;;;5042104;28;8793;-80
2022/03/22 07:03:15;;;;;;;;;21.25;19.25;29.10;99.90;;;;;;5041550;28;8764;-81
2022/03/22 07:05:45;;;;;;;;;15.50;15.00;28.90;99.90;;;;;;5042286;28;8768;-80
2022/03/22 07:08:12;;;;;;;;;15.25;15.25;28.80;99.90;;;;;;5044096;28;8777;-80
2022/03/22 07:10:39;;;;;;;;;10.50;9.75;28.90;99.90;;;;;;5026630;28;8765;-84
2022/03/22 07:13:09;;;;;;;;;15.00;14.75;29.10;99.90;;;;;;5027626;28;8741;-80
2022/03/22 07:15:37;;;;;;;;;14.00;14.00;29.10;99.90;;;;;;5043401;28;8767;-80
2022/03/22 07:18:06;;;;;;;;;19.50;16.00;29.20;99.90;;;;;;5041981;28;8777;-80
2022/03/22 07:20:33;;;;;;;;;15.00;15.00;29.30;99.90;;;;;;5024557;28;8780;-80
2022/03/22 07:23:00;;;;;;;;;11.75;11.00;29.40;99.90;;;;;;5040474;28;8837;-80
2022/03/22 07:25:27;;;;;;;;;10.00;10.00;29.50;99.90;;;;;;5023499;28;8752;-80
2022/03/22 07:27:54;;;;;;;;;13.50;13.50;29.60;99.90;;;;;;5024489;28;8729;-80
2022/03/22 07:30:21;;;;;;;;;12.25;12.25;29.50;99.90;;;;;;5040498;28;8773;-80
2022/03/22 07:32:49;;;;;;;;;12.25;11.75;29.50;99.90;;;;;;5056880;28;8764;-78
2022/03/22 07:35:17;;;;;;;;;12.00;11.50;29.40;99.90;;;;;;5024381;28;8780;-81
2022/03/22 07:37:44;;;;;;;;;16.25;12.50;29.30;99.90;;;;;;5024889;28;8806;-80
2022/03/22 07:40:11;;;;;;;;;10.75;10.75;29.40;99.90;;;;;;5024846;28;8789;-80
2022/03/22 07:42:38;;;;;;;;;12.00;11.25;29.30;99.90;;;;;;5024217;28;8764;-80
2022/03/22 07:45:09;;;;;;;;;11.25;11.25;29.20;99.90;;;;;;5024524;28;8741;-81
2022/03/22 07:47:36;;;;;;;;;15.00;13.75;29.40;99.90;;;;;;5039610;28;8779;-80
2022/03/22 07:53:05;;;;;;;;;11.80;11.80;29.40;99.90;;;;;;5049548;28;8748;-81
2022/03/22 07:55:39;;;;;;;;;5.40;5.00;29.30;99.90;;;;;;5046586;28;8853;-86
2022/03/22 07:58:06;;;;;;;;;15.25;13.00;29.30;99.90;;;;;;5028154;28;8729;-81
2022/03/22 08:00:35;;;;;;;;;13.50;13.50;29.30;99.90;;;;;;5028250;28;9466;-81
2022/03/22 08:03:03;;;;;;;;;12.75;12.75;29.30;99.90;;;;;;5045242;28;8838;-80
2022/03/22 08:05:30;;;;;;;;;11.75;11.75;29.30;99.90;;;;;;5044315;28;8781;-80
2022/03/22 08:07:59;;;;;;;;;15.00;13.75;29.40;99.90;;;;;;5044159;28;8859;-81
2022/03/22 08:10:26;;;;;;;;;12.00;12.00;29.40;99.90;;;;;;5043692;28;8771;-84
2022/03/22 08:12:54;;;;;;;;;9.50;8.25;29.40;99.90;;;;;;5044152;28;8733;-80
2022/03/22 08:15:20;;;;;;;;;17.00;12.00;29.50;99.90;;;;;;5027526;28;8768;-80
2022/03/22 08:17:47;;;;;;;;;14.00;13.00;29.60;99.90;;;;;;5043797;28;8863;-81
2022/03/22 08:20:14;;;;;;;;;13.50;13.50;29.70;99.90;;;;;;5043680;28;8775;-80
2022/03/22 08:22:54;;;;;;;;;13.60;13.60;29.80;99.90;;;;;;5044210;28;8729;-81
2022/03/22 08:25:28;;;;;;;;;13.75;13.75;29.80;99.90;;;;;;5060010;28;9418;-80
2022/03/22 08:27:55;;;;;;;;;15.40;12.60;29.80;99.90;;;;;;5043755;28;8803;-81
2022/03/22 08:30:22;;;;;;;;;11.25;11.25;29.70;99.90;;;;;;5059532;28;8756;-80
2022/03/22 08:32:50;;;;;;;;;11.75;11.75;29.70;99.90;;;;;;5026733;28;8769;-80
2022/03/22 08:35:17;;;;;;;;;10.80;10.80;29.80;99.90;;;;;;5043226;28;8781;-80
2022/03/22 08:37:44;;;;;;;;;12.50;12.50;29.90;99.90;;;;;;5026578;28;8717;-80
2022/03/22 08:40:13;;;;;;;;;10.25;10.25;30.10;99.90;;;;;;5043031;28;8827;-80
2022/03/22 08:42:44;;;;;;;;;8.00;8.00;30.00;99.90;;;;;;5043026;28;8749;-80
2022/03/22 08:45:12;;;;;;;;;13.25;11.75;29.90;99.90;;;;;;5043191;28;8787;-81
2022/03/22 08:47:40;;;;;;;;;9.80;9.80;29.90;99.90;;;;;;5041994;28;8848;-80
2022/03/22 08:50:09;;;;;;;;;14.60;13.20;30.00;99.90;;;;;;5025887;28;8757;-81
2022/03/22 08:52:39;;;;;;;;;10.75;10.00;30.20;99.90;;;;;;5058952;28;8741;-81
2022/03/22 08:55:07;;;;;;;;;13.25;10.75;30.20;99.90;;;;;;5059263;28;8795;-80
2022/03/22 08:57:35;;;;;;;;;14.75;11.75;30.10;99.90;;;;;;5058823;28;8736;-81
2022/03/22 09:00:05;;;;;;;;;13.00;13.00;30.10;99.90;;;;;;5042290;28;8811;-81
2022/03/22 09:02:32;;;;;;;;;12.00;11.25;30.30;99.90;;;;;;5042729;28;8765;-81
2022/03/22 09:07:45;;;;;;;;;15.75;12.75;30.50;99.90;;;;;;5061874;28;9430;-81
2022/03/22 09:10:14;;;;;;;;;12.75;12.75;30.50;99.90;;;;;;5076945;28;8768;-80
2022/03/22 09:12:41;;;;;;;;;11.00;10.75;30.40;99.90;;;;;;5025825;28;8744;-80
2022/03/22 09:15:09;;;;;;;;;12.00;10.50;30.50;99.90;;;;;;5059166;28;8858;-81
2022/03/22 09:17:37;;;;;;;;;11.00;11.00;30.60;99.90;;;;;;5042399;28;8833;-80
2022/03/22 09:20:04;;;;;;;;;8.00;8.00;30.50;99.90;;;;;;5042097;28;8753;-80
2022/03/22 09:22:30;;;;;;;;;10.00;10.00;30.40;99.90;;;;;;5041511;28;8745;-81
2022/03/22 09:24:57;;;;;;;;;13.75;12.25;30.40;99.90;;;;;;5042585;28;8764;-81
2022/03/22 09:27:24;;;;;;;;;14.50;12.00;30.60;99.90;;;;;;5058916;28;8737;-80
2022/03/22 09:29:51;;;;;;;;;14.25;14.00;30.80;99.90;;;;;;5025854;28;8768;-81
2022/03/22 09:32:17;;;;;;;;;11.75;11.75;30.70;99.90;;;;;;5057616;28;8771;-80
2022/03/22 09:34:44;;;;;;;;;13.20;13.20;30.60;99.90;;;;;;5076260;28;8833;-80
2022/03/22 09:37:16;;;;;;;;;13.60;13.60;30.70;99.90;;;;;;5058239;28;8741;-86
2022/03/22 09:39:45;;;;;;;;;12.00;12.00;30.70;99.90;;;;;;5042359;28;8851;-81
2022/03/22 09:42:12;;;;;;;;;13.00;13.00;30.70;99.90;;;;;;5025464;28;8737;-81
2022/03/22 09:44:38;;;;;;;;;10.50;10.50;30.70;99.90;;;;;;5041751;28;8863;-80
2022/03/22 09:47:06;;;;;;;;;13.50;12.75;30.50;99.90;;;;;;5024763;28;8777;-80
2022/03/22 09:49:32;;;;;;;;;11.50;9.50;30.40;99.90;;;;;;5074922;28;8724;-80
2022/03/22 09:52:02;;;;;;;;;10.00;10.00;30.40;99.90;;;;;;5025247;28;8741;-81
2022/03/22 09:54:29;;;;;;;;;10.75;10.75;30.50;99.90;;;;;;5057777;28;8733;-80
2022/03/22 09:56:56;;;;;;;;;13.25;12.25;30.60;99.90;;;;;;5040964;28;8737;-81
2022/03/22 09:59:22;;;;;;;;;12.75;12.00;30.70;99.90;;;;;;5024708;28;8794;-81
2022/03/22 10:01:49;;;;;;;;;11.25;10.50;30.50;99.90;;;;;;5041085;28;8777;-81
2022/03/22 10:04:16;;;;;;;;;13.00;10.25;30.50;99.90;;;;;;5025168;28;8690;-82
2022/03/22 10:07:03;;;;;;;;;11.00;11.00;30.40;99.90;;;;;;5040631;28;8737;-80
2022/03/22 10:09:39;;;;;;;;;12.00;12.00;30.40;99.90;;;;;;5025350;28;9386;-80
2022/03/22 10:12:13;;;;;;;;;12.25;11.50;30.40;99.90;;;;;;5040677;28;8816;-80
2022/03/22 10:14:40;;;;;;;;;13.00;11.75;30.40;99.90;;;;;;5058018;28;8768;-80
2022/03/22 10:17:18;;;;;;;;;10.75;10.75;30.30;99.90;;;;;;5057689;28;8765;-80
2022/03/22 10:19:45;;;;;;;;;11.80;11.80;30.30;99.90;;;;;;5074662;28;8910;-80
2022/03/22 10:22:12;;;;;;;;;11.60;10.60;30.20;99.90;;;;;;5041342;28;8740;-81
2022/03/22 10:25:05;;;;;;;;;12.00;11.50;30.10;99.90;;;;;;5056620;28;8921;-80
2022/03/22 10:27:36;;;;;;;;;11.25;11.25;30.10;99.90;;;;;;5053086;28;8732;-80
2022/03/22 10:30:05;;;;;;;;;11.25;10.50;30.10;99.90;;;;;;5041050;28;8756;-80
2022/03/22 10:32:33;;;;;;;;;13.00;12.00;30.00;99.90;;;;;;5056382;28;8760;-81
2022/03/22 10:35:17;;;;;;;;;12.00;12.00;29.90;99.90;;;;;;5024019;28;8779;-80
2022/03/22 10:37:53;;;;;;;;;13.75;13.75;29.90;99.90;;;;;;5024651;28;9398;-81
2022/03/22 10:40:29;;;;;;;;;14.00;14.00;29.90;99.90;;;;;;5025147;28;8769;-80
2022/03/22 10:43:26;;;;;;;;;13.50;13.50;29.90;99.90;;;;;;5057483;28;8760;-86
2022/03/22 10:46:00;;;;;;;;;12.75;12.75;29.90;99.90;;;;;;5054850;28;8780;-85
2022/03/22 10:48:38;;;;;;;;;16.50;13.75;29.90;99.90;;;;;;5024059;28;8842;-81
2022/03/22 10:51:06;;;;;;;;;13.50;10.50;29.80;99.90;;;;;;5026054;28;8803;-81
2022/03/22 10:53:34;;;;;;;;;13.50;12.00;29.80;99.90;;;;;;5023549;28;9392;-80
2022/03/22 10:56:04;;;;;;;;;12.00;12.00;29.80;99.90;;;;;;5040556;28;8761;-80
2022/03/22 10:58:31;;;;;;;;;11.00;11.00;29.70;99.90;;;;;;5024007;28;8730;-80
2022/03/22 11:01:02;;;;;;;;;12.60;12.60;29.70;99.90;;;;;;5040870;28;9514;-86
2022/03/22 11:03:31;;;;;;;;;13.50;13.00;29.70;99.90;;;;;;5024573;28;8849;-81
2022/03/22 11:05:57;;;;;;;;;17.50;15.75;29.70;99.90;;;;;;5023846;28;8775;-81
2022/03/22 11:08:27;;;;;;;;;18.25;16.00;29.70;99.90;;;;;;5040594;28;8777;-81
2022/03/22 11:10:54;;;;;;;;;15.60;15.60;29.70;99.90;;;;;;5025673;28;8753;-80
2022/03/22 11:13:24;;;;;;;;;14.00;14.00;29.70;99.90;;;;;;5042393;28;8749;-81
2022/03/22 11:15:51;;;;;;;;;11.00;11.00;29.60;99.90;;;;;;5058937;28;8745;-85
2022/03/22 11:18:19;;;;;;;;;14.20;13.80;29.60;99.90;;;;;;5041933;28;8745;-81
2022/03/22 11:20:52;;;;;;;;;10.00;10.00;29.60;99.90;;;;;;5024727;28;8816;-81
2022/03/22 11:23:23;;;;;;;;;8.80;8.60;29.60;99.90;;;;;;5042395;28;8772;-80
2022/03/22 11:25:50;;;;;;;;;15.00;13.20;29.60;99.90;;;;;;5045818;28;8937;-80
2022/03/22 11:28:21;;;;;;;;;16.00;16.00;29.60;99.90;;;;;;5046207;28;8879;-80
2022/03/22 11:30:48;;;;;;;;;16.75;16.75;29.60;99.90;;;;;;5061514;28;8753;-86
2022/03/22 11:36:22;;;;;;;;;20.50;18.75;29.50;99.90;;;;;;5049760;28;9413;-80
2022/03/22 11:38:49;;;;;;;;;15.80;15.80;29.50;99.90;;;;;;5046711;28;8815;-80
2022/03/22 11:44:27;;;;;;;;;15.00;13.50;29.50;99.90;;;;;;5050630;28;8761;-80
2022/03/22 11:47:08;;;;;;;;;20.25;16.00;29.50;99.90;;;;;;5060598;28;8752;-80
2022/03/22 11:49:59;;;;;;;;;24.25;18.75;29.40;99.90;;;;;;5046119;28;8749;-80
2022/03/22 11:52:50;;;;;;;;;20.50;20.50;29.40;99.90;;;;;;5044210;28;8760;-80
2022/03/22 11:55:24;;;;;;;;;28.50;23.50;29.40;99.90;;;;;;5061132;28;8736;-80
2022/03/22 11:58:00;;;;;;;;;19.50;19.50;29.40;99.90;;;;;;5044543;28;8875;-81
2022/03/22 12:00:46;;;;;;;;;16.25;16.25;29.40;99.90;;;;;;5061896;28;8931;-80
2022/03/22 12:03:16;;;;;;;;;16.75;16.75;29.40;99.90;;;;;;5062387;28;8780;-80
2022/03/22 12:05:43;;;;;;;;;20.00;20.00;29.30;99.90;;;;;;5044953;28;8749;-80
2022/03/22 12:08:13;;;;;;;;;22.00;20.75;29.30;99.90;;;;;;5045416;28;8752;-80
2022/03/22 12:10:40;;;;;;;;;25.00;23.75;29.30;99.90;;;;;;5045435;28;8752;-80
2022/03/22 12:13:07;;;;;;;;;23.50;21.25;29.30;99.90;;;;;;5045470;28;8772;-80
2022/03/22 12:15:33;;;;;;;;;20.50;20.50;29.20;99.90;;;;;;5028229;28;8757;-85
2022/03/22 12:18:00;;;;;;;;;23.00;23.00;29.20;99.90;;;;;;5024390;28;8769;-80
2022/03/22 12:20:27;;;;;;;;;24.25;24.00;29.30;99.90;;;;;;5041128;28;8844;-80
2022/03/22 12:23:03;;;;;;;;;21.00;21.00;29.20;99.90;;;;;;5023513;28;8777;-80
2022/03/22 12:25:34;;;;;;;;;23.75;21.25;29.20;99.90;;;;;;5025360;28;8751;-80
2022/03/22 12:28:02;;;;;;;;;35.50;33.25;29.20;99.90;;;;;;5023791;28;8759;-80
2022/03/22 12:30:33;;;;;;;;;40.00;34.25;29.20;99.90;;;;;;5039011;28;8774;-80
2022/03/22 12:33:07;;;;;;;;;34.25;31.00;29.20;99.90;;;;;;5023027;28;8759;-80
2022/03/22 12:35:34;;;;;;;;;28.00;26.25;29.20;99.90;;;;;;5022900;28;8858;-80
2022/03/22 12:38:01;;;;;;;;;10.50;10.00;29.00;99.90;;;;;;5039434;28;8783;-80
2022/03/22 12:40:27;;;;;;;;;5.80;5.80;28.50;99.90;;;;;;5022729;28;8778;-80
2022/03/22 12:42:55;;;;;;;;;4.00;4.00;27.80;99.90;;;;;;5020362;28;8787;-80
2022/03/22 12:45:22;;;;;;;;;3.00;3.00;27.70;99.90;;;;;;5019291;28;9457;-79
2022/03/22 12:48:09;;;;;;;;;7.60;4.60;27.50;99.90;;;;;;5019882;28;8764;-78
2022/03/22 12:50:35;;;;;;;;;1.00;1.00;27.00;99.90;;;;;;5021666;28;8772;-78
2022/03/22 12:53:02;;;;;;;;;4.00;4.00;26.70;99.90;;;;;;5037090;28;8895;-78
2022/03/22 12:55:29;;;;;;;;;2.00;2.00;26.60;99.90;;;;;;5020338;28;8768;-78
2022/03/22 12:57:59;;;;;;;;;3.20;3.20;26.50;99.90;;;;;;5021146;28;8744;-79
2022/03/22 13:00:45;;;;;;;;;2.80;2.80;26.50;99.90;;;;;;5020829;28;8922;-83
2022/03/22 13:03:17;;;;;;;;;3.20;3.20;26.40;99.90;;;;;;5037561;28;8841;-78
2022/03/22 13:05:47;;;;;;;;;2.80;2.80;26.30;99.90;;;;;;5036983;28;8776;-79
2022/03/22 13:08:27;;;;;;;;;2.40;2.40;26.60;99.90;;;;;;5020752;28;8842;-79
2022/03/22 13:16:29;;;;;;;;;6.00;6.00;26.60;99.90;;;;;;5036682;28;8741;-79
2022/03/22 13:18:59;;;;;;;;;6.00;6.00;26.50;99.90;;;;;;5021263;28;8771;-79
2022/03/22 13:21:30;;;;;;;;;5.80;5.80;26.60;99.90;;;;;;5036618;28;8939;-85
2022/03/22 13:24:17;;;;;;;;;5.40;5.00;26.60;99.90;;;;;;5037849;28;8752;-80